Time;durP1;ratioP1;P1;durP2;ratioP2;P2;SDS_P1;SDS_P2;PMS_P1;PMS_P2;Temp;Humidity;BMP_temperature;BMP_pressure;BME280_temperature;BME280_humidity;BME280_pressure;Samples;Min_cycle;Max_cycle;Signal;HPM_P1;HPM_P2
2022/09/01 00:01:51;;;;;;;5.57;3.87;;;21.50;71.20;;;-142.21;92.30;112049.66;5053042;28;20251;-75
2022/09/01 00:04:22;;;;;;;4.63;3.77;;;21.60;70.50;;;-142.21;92.11;112049.66;5051268;28;20226;-76
2022/09/01 00:06:50;;;;;;;6.97;3.70;;;21.60;70.40;;;-142.21;91.09;112049.66;5053027;28;20193;-75
2022/09/01 00:09:20;;;;;;;5.60;3.90;;;21.60;69.90;;;-142.21;91.22;112049.66;5051312;28;20213;-75
2022/09/01 00:11:52;;;;;;;4.10;3.70;;;21.60;69.90;;;-142.21;91.33;112049.66;5053746;28;20275;-76
2022/09/01 00:14:23;;;;;;;4.43;3.70;;;21.60;69.70;;;-142.21;91.83;112049.66;5041770;28;20205;-76
2022/09/01 00:16:52;;;;;;;4.37;3.70;;;21.60;69.90;;;-142.21;93.39;112049.66;5053084;28;20190;-75
2022/09/01 00:19:20;;;;;;;4.17;3.73;;;21.60;70.40;;;-142.21;94.29;112049.66;5046068;28;20233;-76
2022/09/01 00:21:48;;;;;;;5.20;4.37;;;21.50;70.80;;;-142.21;95.28;112049.66;5052182;28;20229;-75
2022/09/01 00:24:18;;;;;;;7.07;5.17;;;21.50;71.30;;;-142.21;95.60;112049.66;5041844;28;20198;-76
2022/09/01 00:26:47;;;;;;;7.93;4.97;;;21.50;71.60;;;-142.21;96.35;112049.66;5017891;28;20771;-76
2022/09/01 00:29:15;;;;;;;7.57;4.73;;;21.40;71.80;;;-142.21;96.86;112049.66;5052434;28;20259;-74
2022/09/01 00:31:42;;;;;;;4.63;4.23;;;21.40;72.10;;;-142.21;96.94;112049.66;5049900;28;20205;-78
2022/09/01 00:34:11;;;;;;;5.27;4.77;;;21.30;72.20;;;-142.21;96.91;112049.66;5041593;28;20847;-76
2022/09/01 00:36:39;;;;;;;6.97;4.63;;;21.30;72.40;;;-142.21;97.09;112049.66;5038409;28;20251;-76
2022/09/01 00:39:07;;;;;;;4.87;4.47;;;21.30;72.40;;;-142.21;97.40;112049.66;5040605;28;20664;-76
2022/09/01 00:41:43;;;;;;;5.30;4.47;;;21.20;72.50;;;-142.21;97.65;112049.66;5044395;28;20218;-76
2022/09/01 00:44:14;;;;;;;7.73;4.80;;;21.20;72.60;;;-142.21;97.71;112049.66;5051978;28;20190;-76
2022/09/01 00:46:45;;;;;;;4.60;4.20;;;21.20;72.90;;;-142.21;97.78;112049.66;5051676;28;20186;-76
2022/09/01 00:49:21;;;;;;;4.73;4.07;;;21.10;72.80;;;-142.21;97.43;112049.66;5052206;28;20612;-76
2022/09/01 00:51:53;;;;;;;5.17;4.20;;;21.10;72.80;;;-142.21;97.82;112049.66;5051397;28;20182;-74
2022/09/01 00:54:26;;;;;;;5.30;4.47;;;21.10;72.90;;;-142.21;97.38;112049.66;5050934;28;20280;-75
2022/09/01 00:56:54;;;;;;;5.67;4.63;;;21.10;72.90;;;-142.21;96.98;112049.66;5051966;28;20273;-75
2022/09/01 00:59:24;;;;;;;5.50;4.10;;;21.00;72.50;;;-142.21;97.75;112049.66;5050880;28;20329;-74
2022/09/01 01:01:52;;;;;;;6.57;4.63;;;21.00;72.80;;;-142.21;98.12;112049.66;5050467;28;20751;-75
2022/09/01 01:04:20;;;;;;;4.87;4.07;;;21.00;72.70;;;-142.21;97.84;112049.66;5042692;28;20290;-76
2022/09/01 01:06:57;;;;;;;7.90;3.93;;;21.00;72.70;;;-142.21;97.28;112049.66;5052074;28;20253;-74
2022/09/01 01:09:29;;;;;;;4.37;3.97;;;21.00;72.70;;;-142.21;96.71;112049.66;5051434;28;20190;-76
2022/09/01 01:11:58;;;;;;;4.47;4.07;;;20.90;72.30;;;-142.21;96.98;112049.66;5038303;28;20206;-76
2022/09/01 01:14:30;;;;;;;4.17;3.73;;;20.90;72.60;;;-142.21;97.26;112049.66;5039759;28;20229;-76
2022/09/01 01:17:01;;;;;;;4.97;4.47;;;20.90;72.70;;;-142.21;97.22;112049.66;5037108;28;20224;-76
2022/09/01 01:25:28;;;;;;;6.03;4.33;;;20.80;72.80;;;-142.21;98.29;112049.66;5050840;28;20561;-76
2022/09/01 01:28:13;;;;;;;4.63;4.00;;;20.80;73.20;;;-142.21;97.75;112049.66;5050672;28;20237;-76
2022/09/01 01:30:51;;;;;;;4.73;4.23;;;20.70;73.10;;;-142.21;98.25;112049.66;5050605;28;20404;-76
2022/09/01 01:33:20;;;;;;;4.80;4.37;;;20.80;73.10;;;-142.21;97.95;112049.66;5051838;28;20190;-76
2022/09/01 01:35:49;;;;;;;4.60;4.20;;;20.70;73.60;;;-142.21;98.39;112049.66;5051281;28;20618;-76
2022/09/01 01:38:19;;;;;;;4.70;4.30;;;20.70;73.30;;;-142.21;98.41;112049.66;5051468;28;20288;-74
2022/09/01 01:40:49;;;;;;;5.17;4.30;;;20.70;73.30;;;-142.21;97.54;112049.66;5051132;28;20256;-74
2022/09/01 01:43:20;;;;;;;4.10;3.70;;;20.70;73.00;;;-142.21;97.87;112049.66;5051611;28;20205;-78
2022/09/01 01:45:50;;;;;;;5.30;4.10;;;20.60;73.10;;;-142.21;97.53;112049.66;5050612;28;20656;-77
2022/09/01 01:48:23;;;;;;;4.80;4.30;;;20.70;72.80;;;-142.21;97.96;112049.66;5051321;28;20198;-76
2022/09/01 01:50:53;;;;;;;4.57;4.07;;;20.70;73.00;;;-142.21;98.35;112049.66;5051046;28;20189;-75
2022/09/01 01:53:21;;;;;;;5.33;4.70;;;20.60;73.40;;;-142.21;98.30;112049.66;5051628;28;20210;-75
2022/09/01 01:55:50;;;;;;;6.27;4.20;;;20.60;73.40;;;-142.21;98.52;112049.66;5051065;28;20248;-75
2022/09/01 01:58:19;;;;;;;5.03;4.63;;;20.60;73.40;;;-142.21;98.20;112049.66;5050984;28;20765;-75
2022/09/01 02:00:48;;;;;;;4.37;3.97;;;20.60;73.40;;;-142.21;98.78;112049.66;5050018;28;20225;-75
2022/09/01 02:03:20;;;;;;;11.03;4.33;;;20.60;73.50;;;-142.21;99.03;112049.66;5052148;28;20259;-75
2022/09/01 02:05:51;;;;;;;6.50;4.20;;;20.60;73.90;;;-142.21;99.06;112049.66;5049242;28;20190;-76
2022/09/01 02:08:21;;;;;;;5.00;4.10;;;20.60;73.80;;;-142.21;98.30;112049.66;5043986;28;20280;-75
2022/09/01 02:10:54;;;;;;;4.37;4.03;;;20.60;73.50;;;-142.21;98.21;112049.66;5050972;28;20226;-78
2022/09/01 02:13:29;;;;;;;4.63;4.10;;;20.60;73.40;;;-142.21;97.72;112049.66;5016495;28;20210;-75
2022/09/01 02:16:00;;;;;;;4.30;3.90;;;20.50;73.30;;;-142.21;97.72;112049.66;5037788;28;20662;-75
2022/09/01 02:18:34;;;;;;;7.27;4.17;;;20.50;73.20;;;-142.21;98.72;112049.66;5054103;28;20309;-76
2022/09/01 02:21:09;;;;;;;5.07;4.27;;;20.50;73.30;;;-142.21;99.09;112049.66;5054154;28;20674;-76
2022/09/01 02:23:39;;;;;;;4.80;4.40;;;20.50;74.30;;;-142.21;99.20;112049.66;5054111;28;20201;-75
2022/09/01 02:26:10;;;;;;;5.83;4.43;;;20.50;73.80;;;-142.21;98.88;112049.66;5054324;28;20209;-75
2022/09/01 02:28:41;;;;;;;6.60;4.30;;;20.50;73.70;;;-142.21;99.15;112049.66;5051893;28;20198;-76
2022/09/01 02:31:10;;;;;;;6.27;4.10;;;20.40;73.70;;;-142.21;99.10;112049.66;5048209;28;20796;-76
2022/09/01 02:33:39;;;;;;;4.47;4.07;;;20.40;73.80;;;-142.21;98.98;112049.66;5051581;28;20618;-75
2022/09/01 02:36:11;;;;;;;4.83;4.33;;;20.40;73.60;;;-142.21;99.01;112049.66;5054142;28;20318;-76
2022/09/01 02:38:41;;;;;;;5.60;4.13;;;20.40;73.60;;;-142.21;99.71;112049.66;5054112;28;20194;-76
2022/09/01 02:41:10;;;;;;;5.27;4.07;;;20.40;73.80;;;-142.21;99.34;112049.66;5053528;28;20728;-75
2022/09/01 02:43:38;;;;;;;5.73;4.20;;;20.30;73.60;;;-142.21;99.58;112049.66;5053790;28;20738;-75
2022/09/01 02:46:06;;;;;;;4.80;4.40;;;20.40;73.90;;;-142.21;99.79;112049.66;5054169;28;20204;-76
2022/09/01 02:48:39;;;;;;;4.87;4.40;;;20.30;74.00;;;-142.21;100.00;112049.66;5053942;28;20225;-75
2022/09/01 02:51:11;;;;;;;4.43;3.93;;;20.30;74.10;;;-142.21;100.00;112049.66;5054613;28;20279;-75
2022/09/01 02:53:41;;;;;;;5.53;4.60;;;20.30;74.20;;;-142.21;100.00;112049.66;5053998;28;20197;-76
2022/09/01 02:56:12;;;;;;;5.13;4.63;;;20.20;74.00;;;-142.21;100.00;112049.66;5053765;28;20455;-76
2022/09/01 02:58:45;;;;;;;5.37;4.57;;;20.20;74.20;;;-142.21;100.00;112049.66;5053109;28;20230;-74
2022/09/01 03:01:19;;;;;;;4.97;4.47;;;20.20;74.20;;;-142.21;100.00;112049.66;5042810;28;20213;-76
2022/09/01 03:03:47;;;;;;;5.13;4.60;;;20.10;74.30;;;-142.21;100.00;112049.66;5048821;28;20284;-75
2022/09/01 03:06:17;;;;;;;5.03;4.53;;;20.10;74.20;;;-142.21;100.00;112049.66;5051940;28;20236;-75
2022/09/01 03:08:44;;;;;;;5.27;4.40;;;20.10;74.40;;;-142.21;100.00;112049.66;5047861;28;20570;-76
2022/09/01 03:11:13;;;;;;;5.07;4.57;;;20.10;74.50;;;-142.21;100.00;112049.66;5054144;28;20197;-75
2022/09/01 03:13:42;;;;;;;4.90;4.50;;;20.00;74.50;;;-142.21;100.00;112049.66;5052663;28;20237;-76
2022/09/01 03:16:11;;;;;;;4.80;4.33;;;20.00;74.50;;;-142.21;100.00;112049.66;5050197;28;20230;-76
2022/09/01 03:18:39;;;;;;;5.77;4.90;;;20.00;74.50;;;-142.21;100.00;112049.66;5048938;28;20721;-75
2022/09/01 03:21:12;;;;;;;5.30;4.83;;;20.00;74.70;;;-142.21;100.00;112049.66;5053563;28;20308;-76
2022/09/01 03:23:40;;;;;;;7.10;4.67;;;20.00;74.80;;;-142.21;100.00;112049.66;5052405;28;20211;-76
2022/09/01 03:26:08;;;;;;;6.93;4.57;;;19.90;74.40;;;-142.21;100.00;112049.66;5053317;28;20297;-76
2022/09/01 03:28:39;;;;;;;5.27;4.53;;;19.90;74.60;;;-142.21;100.00;112049.66;5052986;28;20210;-76
2022/09/01 03:31:07;;;;;;;6.10;4.70;;;19.90;74.70;;;-142.21;100.00;112049.66;5054867;28;20248;-75
2022/09/01 03:33:35;;;;;;;6.97;5.27;;;19.90;74.70;;;-142.21;100.00;112049.66;5051663;28;20289;-76
2022/09/01 03:36:03;;;;;;;5.50;5.00;;;19.80;74.50;;;-142.21;100.00;112049.66;5053105;28;20451;-76
2022/09/01 03:38:32;;;;;;;7.13;4.90;;;19.80;74.70;;;-142.21;100.00;112049.66;5051911;28;20667;-75
2022/09/01 03:41:05;;;;;;;5.10;4.60;;;19.70;74.60;;;-142.21;100.00;112049.66;5046336;28;20226;-75
2022/09/01 03:43:34;;;;;;;5.23;4.73;;;19.70;74.70;;;-142.21;100.00;112049.66;5042046;28;20198;-75
2022/09/01 03:46:03;;;;;;;5.90;5.23;;;19.70;74.90;;;-142.21;100.00;112049.66;5052772;28;20217;-76
2022/09/01 03:48:32;;;;;;;7.07;4.73;;;19.70;75.50;;;-142.21;100.00;112049.66;5052354;28;20206;-76
2022/09/01 03:51:01;;;;;;;5.13;4.63;;;19.70;74.80;;;-142.21;100.00;112049.66;5053350;28;20535;-76
2022/09/01 03:53:32;;;;;;;6.80;4.73;;;19.70;74.80;;;-142.21;100.00;112049.66;5053222;28;20244;-74
2022/09/01 03:56:02;;;;;;;5.90;4.70;;;19.70;74.80;;;-142.21;100.00;112049.66;5052242;28;20236;-76
2022/09/01 03:58:30;;;;;;;5.67;4.93;;;19.60;74.80;;;-142.21;100.00;112049.66;5052375;28;20233;-75
2022/09/01 04:01:01;;;;;;;5.33;4.83;;;19.60;75.00;;;-142.21;100.00;112049.66;5053163;28;20515;-75
2022/09/01 04:03:33;;;;;;;5.27;4.77;;;19.60;75.10;;;-142.21;100.00;112049.66;5052693;28;20440;-75
2022/09/01 04:06:02;;;;;;;5.70;4.57;;;19.60;75.40;;;-142.21;100.00;112049.66;5050368;28;20189;-76
2022/09/01 04:08:30;;;;;;;5.03;4.60;;;19.50;75.20;;;-142.21;100.00;112049.66;5049182;28;20505;-78
2022/09/01 04:11:01;;;;;;;7.77;5.37;;;19.50;75.20;;;-142.21;100.00;112049.66;5051795;28;20448;-77
2022/09/01 04:13:33;;;;;;;9.70;5.10;;;19.50;75.30;;;-142.21;100.00;112049.66;5053064;28;20440;-76
2022/09/01 04:16:01;;;;;;;6.03;5.33;;;19.50;75.50;;;-142.21;100.00;112049.66;5050151;28;20631;-77
2022/09/01 04:18:29;;;;;;;6.60;5.20;;;19.50;75.40;;;-142.21;100.00;112049.66;5047719;28;20567;-77
2022/09/01 04:20:59;;;;;;;5.50;5.00;;;19.50;75.60;;;-142.21;100.00;112049.66;5052322;28;20940;-77
2022/09/01 04:23:30;;;;;;;6.57;5.50;;;19.50;75.80;;;-142.21;100.00;112049.66;5051980;28;20501;-77
2022/09/01 04:26:07;;;;;;;5.87;5.30;;;19.40;75.60;;;-142.21;100.00;112049.66;5051899;28;20193;-77
2022/09/01 04:28:39;;;;;;;6.30;5.70;;;19.40;75.80;;;-142.21;100.00;112049.66;5051697;28;20490;-79
2022/09/01 04:31:16;;;;;;;6.17;5.57;;;19.40;75.70;;;-142.21;100.00;112049.66;5052208;28;20439;-77
2022/09/01 04:33:48;;;;;;;7.50;6.00;;;19.40;75.80;;;-142.21;100.00;112049.66;5048334;28;20455;-76
2022/09/01 04:36:19;;;;;;;5.83;5.23;;;19.40;76.50;;;-142.21;100.00;112049.66;5051519;28;20449;-78
2022/09/01 04:38:48;;;;;;;6.00;5.20;;;19.40;76.50;;;-142.21;100.00;112049.66;5051813;28;20285;-76
2022/09/01 04:41:16;;;;;;;5.87;5.27;;;19.30;75.50;;;-142.21;100.00;112049.66;5051719;28;20221;-78
2022/09/01 04:43:46;;;;;;;6.70;5.87;;;19.30;75.50;;;-142.21;100.00;112049.66;5032342;28;20460;-76
2022/09/01 04:46:16;;;;;;;6.23;5.70;;;19.30;75.50;;;-142.21;100.00;112049.66;5043586;28;20868;-77
2022/09/01 04:48:46;;;;;;;6.63;5.93;;;19.30;75.70;;;-142.21;100.00;112049.66;5051912;28;20551;-78
2022/09/01 04:51:15;;;;;;;6.10;5.50;;;19.30;75.80;;;-142.21;100.00;112049.66;5051938;28;20198;-78
2022/09/01 04:53:47;;;;;;;6.07;5.47;;;19.30;75.90;;;-142.21;100.00;112049.66;5043650;28;20290;-77
2022/09/01 04:56:18;;;;;;;6.40;5.80;;;19.30;75.90;;;-142.21;100.00;112049.66;5041012;28;20492;-77
2022/09/01 04:58:45;;;;;;;6.87;6.17;;;19.30;75.90;;;-142.21;100.00;112049.66;5031522;28;20328;-77
2022/09/01 05:01:17;;;;;;;6.23;5.63;;;19.30;75.80;;;-142.21;100.00;112049.66;5043704;28;20452;-78
2022/09/01 05:04:00;;;;;;;8.17;6.40;;;19.30;75.90;;;-142.21;100.00;112049.66;5051126;28;20202;-79
2022/09/01 05:06:32;;;;;;;7.57;6.03;;;19.30;75.90;;;-142.21;100.00;112049.66;5045469;28;20536;-77
2022/09/01 05:09:02;;;;;;;6.83;6.13;;;19.30;76.10;;;-142.21;100.00;112049.66;5030933;28;20980;-78
2022/09/01 05:11:31;;;;;;;7.53;6.53;;;19.30;76.00;;;-142.21;100.00;112049.66;5046263;28;20202;-79
2022/09/01 05:13:59;;;;;;;8.27;6.53;;;19.30;76.10;;;-142.21;100.00;112049.66;5050941;28;20455;-79
2022/09/01 05:16:26;;;;;;;7.83;6.27;;;19.30;76.30;;;-142.21;100.00;112049.66;5045870;28;20449;-77
2022/09/01 05:18:55;;;;;;;8.37;6.60;;;19.30;76.40;;;-142.21;100.00;112049.66;5031424;28;20548;-79
2022/09/01 05:21:27;;;;;;;7.93;7.13;;;19.30;76.60;;;-142.21;100.00;112049.66;5046620;28;20463;-79
2022/09/01 05:23:55;;;;;;;9.27;7.03;;;19.30;76.70;;;-142.21;100.00;112049.66;5051419;28;21286;-80
2022/09/01 05:26:26;;;;;;;8.57;7.67;;;19.40;77.00;;;-142.21;100.00;112049.66;5046451;28;20457;-79
2022/09/01 05:28:57;;;;;;;9.73;6.80;;;19.40;77.00;;;-142.21;100.00;112049.66;5031575;28;20299;-77
2022/09/01 05:31:27;;;;;;;9.43;7.47;;;19.50;77.10;;;-142.21;100.00;112049.66;5041915;28;20449;-80
2022/09/01 05:33:56;;;;;;;7.50;6.80;;;19.50;77.10;;;-142.21;100.00;112049.66;5037351;28;20212;-79
2022/09/01 05:36:25;;;;;;;8.90;6.90;;;19.60;77.30;;;-142.21;100.00;112049.66;5051892;28;20456;-79
2022/09/01 05:38:52;;;;;;;8.77;7.87;;;19.60;77.30;;;-142.21;100.00;112049.66;5065687;28;20204;-77
2022/09/01 05:41:22;;;;;;;12.27;7.77;;;19.60;77.40;;;-142.21;100.00;112049.66;5059287;28;20260;-77
2022/09/01 05:43:51;;;;;;;8.70;7.80;;;19.70;77.60;;;-142.21;100.00;112049.66;5050749;28;20249;-78
2022/09/01 05:46:22;;;;;;;10.67;8.10;;;19.70;77.60;;;-142.21;100.00;112049.66;5041767;28;20870;-78
2022/09/01 05:48:53;;;;;;;10.77;8.57;;;19.80;77.50;;;-142.21;100.00;112049.66;5036617;28;20614;-79
2022/09/01 05:51:25;;;;;;;8.63;7.60;;;19.80;77.60;;;-142.21;100.00;112049.66;5063638;28;20201;-80
2022/09/01 05:53:57;;;;;;;9.00;7.60;;;19.90;77.60;;;-142.21;100.00;112049.66;5074713;28;20284;-79
2022/09/01 05:56:27;;;;;;;8.10;7.30;;;19.90;77.30;;;-142.21;100.00;112049.66;5046778;28;22014;-79
2022/09/01 05:58:58;;;;;;;10.53;8.17;;;20.00;77.20;;;-142.21;100.00;112049.66;5054563;28;20475;-79
2022/09/01 06:01:32;;;;;;;9.07;7.47;;;20.00;77.00;;;-142.21;100.00;112049.66;5074876;28;20193;-77
2022/09/01 06:04:03;;;;;;;10.23;8.70;;;20.10;76.90;;;-142.21;100.00;112049.66;5056717;28;20198;-78
2022/09/01 06:06:39;;;;;;;9.17;7.50;;;20.10;77.10;;;-142.21;100.00;112049.66;5060687;28;20668;-78
2022/09/01 06:09:10;;;;;;;9.37;8.37;;;20.20;77.80;;;-142.21;100.00;112049.66;5060486;28;20256;-78
2022/09/01 06:11:41;;;;;;;10.83;8.93;;;20.30;76.60;;;-142.21;100.00;112049.66;5039096;28;20308;-78
2022/09/01 06:14:10;;;;;;;8.83;8.00;;;20.30;76.00;;;-142.21;100.00;112049.66;5036170;28;20194;-79
2022/09/01 06:16:37;;;;;;;9.77;7.90;;;20.30;76.50;;;-142.21;100.00;112049.66;5041083;28;20624;-78
2022/09/01 06:19:06;;;;;;;9.97;8.17;;;20.30;76.40;;;-142.21;100.00;112049.66;5011965;28;20271;-78
2022/09/01 06:21:35;;;;;;;9.93;8.10;;;20.30;76.10;;;-142.21;100.00;112049.66;5054575;28;20255;-78
2022/09/01 06:24:05;;;;;;;9.17;8.27;;;20.40;76.00;;;-142.21;100.00;112049.66;5054329;28;20255;-78
2022/09/01 06:26:37;;;;;;;8.60;7.70;;;20.40;76.00;;;-142.21;100.00;112049.66;5054691;28;20208;-78
2022/09/01 06:29:09;;;;;;;9.33;7.63;;;20.50;75.90;;;-142.21;100.00;112049.66;5055180;28;20243;-79
2022/09/01 06:31:39;;;;;;;8.87;7.73;;;20.50;75.90;;;-142.21;100.00;112049.66;5055303;28;20186;-77
2022/09/01 06:34:11;;;;;;;10.63;7.90;;;20.60;75.90;;;-142.21;100.00;112049.66;5054940;28;20214;-77
2022/09/01 06:36:42;;;;;;;10.30;7.80;;;20.70;76.10;;;-142.21;100.00;112049.66;5054763;28;20258;-79
2022/09/01 06:39:18;;;;;;;8.53;7.73;;;20.70;75.70;;;-142.21;100.00;112049.66;5055117;28;20563;-78
2022/09/01 06:41:47;;;;;;;8.80;7.27;;;20.80;75.30;;;-142.21;100.00;112049.66;5054298;28;20193;-77
2022/09/01 06:44:21;;;;;;;11.87;8.20;;;20.80;75.40;;;-142.21;100.00;112049.66;5054833;28;20206;-78
2022/09/01 06:46:48;;;;;;;8.97;7.63;;;20.90;75.10;;;-142.21;100.00;112049.66;5054403;28;20201;-78
2022/09/01 06:49:15;;;;;;;10.70;9.17;;;21.00;75.10;;;-142.21;99.76;112049.66;5054467;28;20209;-78
2022/09/01 06:51:50;;;;;;;8.97;8.07;;;21.00;74.70;;;-142.21;100.00;112049.66;5053917;28;20216;-77
2022/09/01 06:54:18;;;;;;;10.07;8.97;;;21.10;74.80;;;-142.21;100.00;112049.66;5054384;28;20198;-78
2022/09/01 06:56:46;;;;;;;9.90;8.63;;;21.20;74.80;;;-142.21;99.68;112049.66;5054194;28;20206;-76
2022/09/01 06:59:14;;;;;;;10.90;8.80;;;21.30;74.60;;;-142.21;99.30;112049.66;5053148;28;20710;-78
2022/09/01 07:01:42;;;;;;;10.50;9.30;;;21.30;74.00;;;-142.21;99.03;112049.66;5053909;28;20218;-78
2022/09/01 07:04:09;;;;;;;9.27;8.23;;;21.40;74.20;;;-142.21;99.38;112049.66;5054247;28;20210;-77
2022/09/01 07:06:40;;;;;;;9.20;7.90;;;21.40;74.20;;;-142.21;99.10;112049.66;5054269;28;20256;-78
2022/09/01 07:09:10;;;;;;;8.93;8.03;;;21.50;74.30;;;-142.21;99.12;112049.66;5054119;28;20194;-78
2022/09/01 07:11:38;;;;;;;9.40;7.90;;;21.60;74.10;;;-142.21;98.13;112049.66;5054612;28;20202;-79
2022/09/01 07:14:06;;;;;;;8.10;7.30;;;21.60;73.50;;;-142.21;98.79;112049.66;5055839;28;20210;-78
2022/09/01 07:16:38;;;;;;;10.47;8.43;;;21.70;73.80;;;-142.21;97.14;112049.66;5057290;28;20210;-77
2022/09/01 07:19:13;;;;;;;9.20;8.23;;;21.70;72.90;;;-142.21;98.20;112049.66;5053169;28;20226;-77
2022/09/01 07:21:43;;;;;;;8.67;7.70;;;21.80;73.40;;;-142.21;97.42;112049.66;5053997;28;20186;-78
2022/09/01 07:24:17;;;;;;;8.93;8.03;;;21.80;73.10;;;-142.21;97.99;112049.66;5053879;28;20209;-78
2022/09/01 07:26:48;;;;;;;8.70;7.80;;;21.90;73.30;;;-142.21;97.24;112049.66;5053169;28;20190;-77
2022/09/01 07:29:20;;;;;;;9.33;7.53;;;22.00;73.10;;;-142.21;97.22;112049.66;5053602;28;20653;-77
2022/09/01 07:31:48;;;;;;;8.43;7.63;;;22.10;72.90;;;-142.21;97.85;112049.66;5053023;28;20194;-76
2022/09/01 07:34:15;;;;;;;7.50;6.73;;;22.20;73.10;;;-142.21;96.23;112049.66;5053532;28;20605;-79
2022/09/01 07:36:44;;;;;;;9.53;8.03;;;22.20;72.30;;;-142.21;95.71;112049.66;5053398;28;20220;-77
2022/09/01 07:39:14;;;;;;;10.23;7.93;;;22.30;72.00;;;-142.21;94.78;112049.66;5053892;28;20213;-77
2022/09/01 07:41:42;;;;;;;8.07;6.97;;;22.40;71.60;;;-142.21;94.96;112049.66;5054213;28;20260;-77
2022/09/01 07:44:13;;;;;;;8.57;6.93;;;22.40;71.70;;;-142.21;95.02;112049.66;5054565;28;20229;-76
2022/09/01 07:46:42;;;;;;;10.10;7.40;;;22.50;71.60;;;-142.21;93.85;112049.66;5054253;28;20197;-77
2022/09/01 07:49:10;;;;;;;8.17;6.80;;;22.60;71.10;;;-142.21;93.96;112049.66;5053219;28;20614;-77
2022/09/01 07:51:37;;;;;;;9.80;6.83;;;22.70;70.80;;;-142.21;93.40;112049.66;5053298;28;20730;-79
2022/09/01 07:54:05;;;;;;;8.83;6.93;;;22.80;70.50;;;-142.21;93.33;112049.66;5052495;28;20202;-78
2022/09/01 07:56:35;;;;;;;7.13;6.27;;;22.90;70.60;;;-142.21;93.71;112049.66;5053073;28;20229;-76
2022/09/01 07:59:02;;;;;;;9.97;6.87;;;23.00;71.00;;;-142.21;93.08;112049.66;5052623;28;20238;-77
2022/09/01 08:01:30;;;;;;;8.37;7.17;;;23.10;70.30;;;-142.21;91.15;112049.66;5053303;28;20236;-76
2022/09/01 08:04:01;;;;;;;7.07;6.00;;;23.10;69.60;;;-142.21;92.54;112049.66;5052096;28;20768;-77
2022/09/01 08:06:29;;;;;;;8.13;6.80;;;23.20;70.00;;;-142.21;91.29;112049.66;5053111;28;20186;-77
2022/09/01 08:08:59;;;;;;;9.13;6.57;;;23.30;69.80;;;-142.21;90.17;112049.66;5052221;28;20263;-75
2022/09/01 08:11:29;;;;;;;7.37;6.60;;;23.30;69.30;;;-142.21;88.99;112049.66;5052921;28;20372;-76
2022/09/01 08:14:02;;;;;;;6.33;5.73;;;23.40;68.80;;;-142.21;88.94;112049.66;5052568;28;20195;-77
2022/09/01 08:16:31;;;;;;;7.67;6.33;;;23.40;68.20;;;-142.21;87.58;112049.66;5052916;28;20209;-77
2022/09/01 08:18:59;;;;;;;7.80;6.17;;;23.50;67.60;;;-142.21;87.43;112049.66;5051960;28;20279;-75
2022/09/01 08:21:28;;;;;;;6.20;5.60;;;23.60;67.30;;;-142.21;89.67;112049.66;5052678;28;20212;-75
2022/09/01 08:23:56;;;;;;;5.63;5.00;;;23.70;68.10;;;-142.21;89.23;112049.66;5052026;28;20240;-76
2022/09/01 08:26:25;;;;;;;6.07;5.47;;;23.80;68.10;;;-142.21;88.17;112049.66;5053107;28;20210;-76
2022/09/01 08:28:54;;;;;;;6.23;5.63;;;23.90;67.60;;;-142.21;89.35;112049.66;5052335;28;20660;-76
2022/09/01 08:31:26;;;;;;;6.67;4.97;;;24.10;68.10;;;-142.21;86.71;112049.66;5052574;28;20244;-76
2022/09/01 08:33:53;;;;;;;5.97;5.27;;;24.10;66.90;;;-142.21;85.50;112049.66;5050814;28;20194;-75
2022/09/01 08:36:22;;;;;;;5.90;5.30;;;24.20;66.40;;;-142.21;84.90;112049.66;5052497;28;20771;-76
2022/09/01 08:38:49;;;;;;;5.67;5.07;;;24.30;65.90;;;-142.21;85.40;112049.66;5051769;28;20254;-76
2022/09/01 08:41:29;;;;;;;5.83;5.10;;;24.40;65.80;;;-142.21;85.49;112049.66;5052585;28;20208;-76
2022/09/01 08:44:10;;;;;;;5.23;4.73;;;24.50;65.80;;;-142.21;85.04;112049.66;5052035;28;20224;-77
2022/09/01 08:46:43;;;;;;;5.80;5.30;;;24.60;65.70;;;-142.21;84.32;112049.66;5052516;28;20197;-75
2022/09/01 08:49:18;;;;;;;6.40;5.03;;;24.70;65.30;;;-142.21;85.13;112049.66;5052082;28;20577;-76
2022/09/01 08:51:54;;;;;;;6.07;5.47;;;24.80;65.50;;;-142.21;85.28;112049.66;5052480;28;20213;-76
2022/09/01 08:54:27;;;;;;;5.80;5.20;;;24.80;65.10;;;-142.21;83.00;112049.66;5052358;28;20197;-75
2022/09/01 08:57:01;;;;;;;5.87;5.27;;;24.80;64.30;;;-142.21;83.52;112049.66;5051841;28;20224;-76
2022/09/01 08:59:29;;;;;;;5.30;4.80;;;24.80;64.90;;;-142.21;83.26;112049.66;5052276;28;20244;-76
2022/09/01 09:02:14;;;;;;;5.40;4.90;;;24.80;63.80;;;-142.21;83.61;112049.66;5051090;28;20236;-75
2022/09/01 09:04:58;;;;;;;6.07;5.10;;;24.90;63.90;;;-142.21;82.45;112049.66;5052276;28;20186;-76
2022/09/01 09:07:48;;;;;;;6.07;5.33;;;25.00;63.30;;;-142.21;81.54;112049.66;5052208;28;20277;-76
2022/09/01 09:10:21;;;;;;;5.47;4.97;;;25.00;62.90;;;-142.21;80.86;112049.66;5052172;28;20205;-76
2022/09/01 09:13:08;;;;;;;5.40;4.87;;;25.00;62.30;;;-142.21;82.88;112049.66;5051219;28;20194;-76
2022/09/01 09:15:44;;;;;;;4.90;4.43;;;25.00;63.10;;;-142.21;82.10;112049.66;5050856;28;20578;-77
2022/09/01 09:18:27;;;;;;;5.30;4.80;;;25.10;63.00;;;-142.21;81.24;112049.66;5051375;28;20350;-76
2022/09/01 09:20:58;;;;;;;5.93;5.03;;;25.20;62.30;;;-142.21;79.58;112049.66;5050665;28;20186;-77
2022/09/01 09:23:33;;;;;;;5.67;5.17;;;25.20;62.00;;;-142.21;80.31;112049.66;5052054;28;20213;-77
2022/09/01 09:26:00;;;;;;;5.30;4.80;;;25.30;62.20;;;-142.21;80.99;112049.66;5051433;28;20255;-76
2022/09/01 09:28:28;;;;;;;5.80;5.20;;;25.30;62.10;;;-142.21;79.45;112049.66;5051809;28;20670;-78
2022/09/01 09:31:27;;;;;;;5.43;4.90;;;25.30;61.70;;;-142.21;79.32;112049.66;5051176;28;20202;-75
2022/09/01 09:33:57;;;;;;;6.07;5.20;;;25.40;61.40;;;-142.21;78.91;112049.66;5051579;28;20189;-78
2022/09/01 09:36:33;;;;;;;5.70;4.93;;;25.40;61.60;;;-142.21;79.55;112049.66;5051564;28;20186;-77
2022/09/01 09:39:12;;;;;;;6.40;5.20;;;25.40;61.50;;;-142.21;78.20;112049.66;5050979;28;20716;-77
2022/09/01 09:41:41;;;;;;;5.40;4.90;;;25.50;60.60;;;-142.21;78.25;112049.66;5051689;28;20189;-77
2022/09/01 09:44:24;;;;;;;5.17;4.67;;;25.60;61.10;;;-142.21;78.23;112049.66;5050751;28;20229;-76
2022/09/01 09:46:52;;;;;;;5.33;4.83;;;25.80;61.20;;;-142.21;75.82;112049.66;5051179;28;20198;-76
2022/09/01 09:49:25;;;;;;;5.10;4.60;;;25.90;61.00;;;-142.21;73.50;112049.66;5051413;28;20245;-77
2022/09/01 09:51:56;;;;;;;4.47;4.07;;;26.10;59.40;;;-142.21;74.83;112049.66;5051237;28;20197;-78
2022/09/01 09:54:27;;;;;;;5.17;4.17;;;26.30;59.60;;;-142.21;74.02;112049.66;5051583;28;20190;-77
2022/09/01 09:57:12;;;;;;;4.90;4.40;;;26.40;59.40;;;-142.21;71.85;112049.66;5050882;28;20659;-76
2022/09/01 09:59:43;;;;;;;4.10;3.77;;;26.60;58.40;;;-142.21;68.17;112049.66;5051330;28;20318;-75
2022/09/01 10:02:31;;;;;;;4.47;4.07;;;26.60;57.60;;;-142.21;64.62;112049.66;5051091;28;20572;-77
2022/09/01 10:05:21;;;;;;;4.07;3.60;;;26.70;56.30;;;-142.21;68.58;112049.66;5050716;28;20236;-76
2022/09/01 10:07:50;;;;;;;4.50;4.10;;;26.70;57.30;;;-142.21;60.14;112049.66;5051661;28;20244;-77
2022/09/01 10:10:31;;;;;;;4.90;4.10;;;26.70;55.20;;;-142.21;59.44;112049.66;5051194;28;20670;-77
2022/09/01 10:13:00;;;;;;;4.17;3.80;;;26.70;54.50;;;-142.21;58.60;112049.66;5050607;28;20199;-77
2022/09/01 10:15:33;;;;;;;4.40;4.00;;;26.40;54.50;;;-142.21;65.33;112049.66;5051057;28;20201;-77
2022/09/01 10:18:07;;;;;;;4.20;3.80;;;26.40;56.10;;;-142.21;66.38;112049.66;5050357;28;20272;-75
2022/09/01 10:20:39;;;;;;;4.37;3.97;;;26.50;56.30;;;-142.21;65.32;112049.66;5051340;28;20193;-75